Daishinmaru No.88 — JK5584 — position and weather

sailwx.info

Track history (hours):
 
Tides and Currents Weather Stations Pressure Air Temp Water Temp Dewpoint Dewpoint Depression Visibility Wind Speed Wind Dir Waves Ship Positions

Daishinmaru No.88

Last reported at 2017-Sep-25 04:36 UTC. Time now 2017-Oct-17 06:19 UTC.
Position N 35°37' E 139°48'.
Warning: this ship's position is 22 days out of date.

Length 30 m.

Type: Towing. MMSI: 432474000.

Date/timePositionNaut miles runAvg speedWind from/ knotsBaromVisibWave heightAir tempDewpointWater temp
2017-Sep-25 04:36N 35°37' E 139°48'0 0.0
2017-Sep-25 04:15N 35°37' E 139°48'0 0.3
2017-Sep-25 03:58N 35°37' E 139°48'3 5.9
2017-Sep-25 03:27N 35°36' E 139°51'5 8.8
2017-Sep-25 02:52N 35°36' E 139°58'4 0.9
2017-Sep-24 22:04N 35°35' E 139°52'4 4.7
2017-Sep-24 21:13N 35°37' E 139°48'0 0.0
2017-Sep-24 20:55N 35°37' E 139°48'0 0.0
2017-Sep-24 20:28N 35°37' E 139°48'0 0.0
2017-Sep-24 19:58N 35°37' E 139°48'0 0.0
2017-Sep-24 19:25N 35°37' E 139°48'0 0.0
2017-Sep-24 18:58N 35°37' E 139°48'0 0.0
2017-Sep-24 18:19N 35°37' E 139°48'0 0.0
2017-Sep-24 17:55N 35°37' E 139°48'0 0.0
2017-Sep-24 17:28N 35°37' E 139°48'0 0.0
2017-Sep-24 16:58N 35°37' E 139°48'0 0.0
2017-Sep-24 16:25N 35°37' E 139°48'0 0.0
2017-Sep-24 15:55N 35°37' E 139°48'0 0.0
2017-Sep-24 15:25N 35°37' E 139°48'0 0.0
2017-Sep-24 14:58N 35°37' E 139°48'0 0.0
2017-Sep-24 14:28N 35°37' E 139°48'0 0.0
2017-Sep-24 13:58N 35°37' E 139°48'0 0.0
2017-Sep-24 13:22N 35°37' E 139°48'0 0.0
2017-Sep-24 12:58N 35°37' E 139°48'0 0.0
2017-Sep-24 12:28N 35°37' E 139°48'0 0.0
2017-Sep-24 11:43N 35°37' E 139°48'0 0.0
2017-Sep-24 11:19N 35°37' E 139°48'0 0.0
2017-Sep-24 10:58N 35°37' E 139°48'0 0.0
2017-Sep-24 10:28N 35°37' E 139°48'0 0.0
2017-Sep-24 09:58N 35°37' E 139°48'0 0.0
2017-Sep-24 09:28N 35°37' E 139°48'0 0.0
2017-Sep-24 08:58N 35°37' E 139°48'0 0.0
2017-Sep-24 08:28N 35°37' E 139°48'0 0.0
2017-Sep-24 07:58N 35°37' E 139°48'0 0.0
2017-Sep-24 07:28N 35°37' E 139°48'0 0.4
2017-Sep-24 07:00N 35°37' E 139°48'3 5.0
2017-Sep-24 06:18N 35°35' E 139°52'4 0.7
2017-Sep-24 00:57N 35°37' E 139°48'3 6.3
2017-Sep-24 00:30N 35°36' E 139°51'2 0.5
2017-Sep-23 20:44N 35°36' E 139°54'2 7.1
2017-Sep-23 20:25N 35°36' E 139°51'3 6.4
2017-Sep-23 20:00N 35°37' E 139°48'0 0.0
2017-Sep-22 01:07N 35°37' E 139°48'0 3.0
2017-Sep-22 01:00N 35°37' E 139°48'3 6.1
2017-Sep-22 00:30N 35°36' E 139°52'1 0.1
2017-Sep-21 20:18N 35°35' E 139°52'4 6.1
2017-Sep-21 19:43N 35°37' E 139°48'0 0.1
2017-Sep-21 13:35N 35°37' E 139°48'0 0.0
2017-Sep-21 13:20N 35°37' E 139°48'0 0.0
2017-Sep-21 12:50N 35°37' E 139°48'0 0.0
2017-Sep-21 12:29N 35°37' E 139°48'0 0.0
2017-Sep-21 08:26N 35°37' E 139°48'0 0.4
2017-Sep-21 07:59N 35°37' E 139°48'1 0.4
2017-Sep-21 06:32N 35°37' E 139°48'2 8.1
2017-Sep-21 06:20N 35°36' E 139°47'3 9.1
2017-Sep-21 06:00N 35°39' E 139°46'0 0.5
2017-Sep-21 05:06N 35°39' E 139°46'2 9.5
2017-Sep-21 04:54N 35°37' E 139°46'2 1.8
2017-Sep-21 03:54N 35°37' E 139°48'3 8.3
2017-Sep-21 03:30N 35°35' E 139°51'2 0.3
2017-Sep-20 21:30N 35°37' E 139°50'2 3.0
2017-Sep-20 21:00N 35°37' E 139°48'0 0.0
2017-Sep-20 20:27N 35°37' E 139°48'0 0.0
2017-Sep-20 20:00N 35°37' E 139°48'0 0.0
2017-Sep-20 19:30N 35°37' E 139°48'0 0.0
2017-Sep-20 19:00N 35°37' E 139°48'0 0.0
2017-Sep-20 18:30N 35°37' E 139°48'0 0.0
2017-Sep-20 18:00N 35°37' E 139°48'0 0.0
2017-Sep-20 17:30N 35°37' E 139°48'0 0.0
2017-Sep-20 17:00N 35°37' E 139°48'0 0.0
2017-Sep-20 16:30N 35°37' E 139°48'0 0.0
2017-Sep-20 09:27N 35°37' E 139°48'0 0.0
2017-Sep-20 08:54N 35°37' E 139°48'1 1.4
2017-Sep-20 08:30N 35°37' E 139°48'3 2.4
2017-Sep-20 07:19N 35°35' E 139°51'0 0.5
2017-Sep-20 06:33N 35°35' E 139°51'1 4.8
2017-Sep-20 06:22N 35°35' E 139°52'4 0.7
2017-Sep-20 01:03N 35°37' E 139°48'0 2.3
2017-Sep-20 01:00N 35°37' E 139°48'2 3.9
2017-Sep-20 00:29N 35°36' E 139°50'2 0.4
2017-Sep-19 20:34N 35°35' E 139°52'0 6.7
2017-Sep-19 20:30N 35°35' E 139°51'3 0.3
2017-Sep-19 07:24N 35°37' E 139°48'1 1.1
2017-Sep-19 06:56N 35°37' E 139°48'2 5.3
2017-Sep-19 06:29N 35°36' E 139°51'2 0.4
2017-Sep-19 01:56N 35°36' E 139°53'2 5.3
2017-Sep-19 01:30N 35°36' E 139°50'2 3.9
2017-Sep-19 00:59N 35°37' E 139°48'0 0.0
2017-Sep-19 00:23N 35°37' E 139°48'0 0.0
2017-Sep-18 23:38N 35°37' E 139°48'0 0.0
2017-Sep-18 23:29N 35°37' E 139°48'0 0.4
2017-Sep-18 22:55N 35°37' E 139°48'0 0.3
2017-Sep-18 22:30N 35°37' E 139°48'0 0.3
2017-Sep-18 21:45N 35°37' E 139°48'0 0.0
2017-Sep-17 19:51N 35°37' E 139°48'0 0.0
2017-Sep-17 19:21N 35°37' E 139°48'0 0.0
2017-Sep-17 18:57N 35°37' E 139°48'0 0.0
2017-Sep-17 18:27N 35°37' E 139°48'0 0.0
2017-Sep-17 17:57N 35°37' E 139°48'0 0.0
2017-Sep-17 17:21N 35°37' E 139°48'0 0.0
2017-Sep-17 16:57N 35°37' E 139°48'0 0.0
2017-Sep-17 16:21N 35°37' E 139°48'1 0.1
2017-Sep-17 06:06N 35°37' E 139°49'110.6
2017-Sep-17 05:58N 35°36' E 139°50'2 0.3
2017-Sep-17 00:35N 35°37' E 139°49'0 2.0
2017-Sep-17 00:26N 35°37' E 139°48'0 0.5
2017-Sep-16 23:44N 35°37' E 139°48'0 0.8
2017-Sep-16 23:30N 35°37' E 139°48'0 0.1
2017-Sep-16 21:17N 35°37' E 139°48'0 0.0
2017-Sep-16 20:59N 35°37' E 139°48'0 0.0
2017-Sep-16 20:29N 35°37' E 139°48'0 0.0
2017-Sep-16 19:59N 35°37' E 139°48'0 0.0
2017-Sep-16 19:23N 35°37' E 139°48'0 0.0
2017-Sep-16 18:59N 35°37' E 139°48'0 0.0
2017-Sep-16 18:29N 35°37' E 139°48'0 0.0
2017-Sep-16 17:59N 35°37' E 139°48'0 0.0
2017-Sep-16 17:29N 35°37' E 139°48'0 0.0
2017-Sep-16 16:59N 35°37' E 139°48'0 0.0
2017-Sep-16 16:29N 35°37' E 139°48'0 0.0
2017-Sep-16 15:59N 35°37' E 139°48'0 0.0
2017-Sep-16 15:23N 35°37' E 139°48'0 0.0
2017-Sep-16 14:59N 35°37' E 139°48'0 0.0
2017-Sep-16 14:23N 35°37' E 139°48'0 0.0
2017-Sep-16 13:59N 35°37' E 139°48'0 0.0
2017-Sep-16 13:29N 35°37' E 139°48'0 0.0
2017-Sep-16 12:59N 35°37' E 139°48'0 0.0
2017-Sep-16 12:11N 35°37' E 139°48'0 0.0
2017-Sep-16 11:59N 35°37' E 139°48'0 0.0
2017-Sep-16 11:29N 35°37' E 139°48'0 0.0
2017-Sep-16 10:41N 35°37' E 139°48'0 0.0
2017-Sep-16 10:29N 35°37' E 139°48'0 0.0
2017-Sep-16 09:59N 35°37' E 139°48'0 0.0
2017-Sep-16 09:29N 35°37' E 139°48'0 0.0
2017-Sep-16 08:29N 35°37' E 139°48'0 0.0
2017-Sep-16 07:43N 35°37' E 139°48'0 0.0
2017-Sep-16 07:23N 35°37' E 139°48'0 0.0
2017-Sep-16 06:59N 35°37' E 139°48'0 0.0
2017-Sep-16 06:17N 35°37' E 139°48'0 0.0
2017-Sep-16 05:50N 35°37' E 139°48'0 0.0
2017-Sep-16 05:29N 35°37' E 139°48'2 4.0
2017-Sep-16 04:58N 35°36' E 139°50'2 0.1
2017-Sep-15 07:51N 35°37' E 139°48'0 0.7
2017-Sep-15 07:20N 35°37' E 139°48'0 0.6
2017-Sep-15 06:53N 35°37' E 139°48'3 6.7
2017-Sep-15 06:24N 35°36' E 139°52'  
Track history (hours):
 
Tides and Currents Weather Stations Pressure Air Temp Water Temp Dewpoint Dewpoint Depression Visibility Wind Speed Wind Dir Waves Ship Positions

Daishinmaru No.88

Last reported at 2017-Sep-25 04:36 UTC. Time now 2017-Oct-17 06:19 UTC.
Position N 35°37' E 139°48'.
Warning: this ship's position is 22 days out of date.

Length 30 m.

Type: Towing. MMSI: 432474000.

Date/timePositionNaut miles runAvg speedWind from/ knotsBaromVisibWave heightAir tempDewpointWater temp
2017-Sep-25 04:36N 35°37' E 139°48'0 0.0
2017-Sep-25 04:15N 35°37' E 139°48'0 0.3
2017-Sep-25 03:58N 35°37' E 139°48'3 5.9
2017-Sep-25 03:27N 35°36' E 139°51'5 8.8
2017-Sep-25 02:52N 35°36' E 139°58'4 0.9
2017-Sep-24 22:04N 35°35' E 139°52'4 4.7
2017-Sep-24 21:13N 35°37' E 139°48'0 0.0
2017-Sep-24 20:55N 35°37' E 139°48'0 0.0
2017-Sep-24 20:28N 35°37' E 139°48'0 0.0
2017-Sep-24 19:58N 35°37' E 139°48'0 0.0
2017-Sep-24 19:25N 35°37' E 139°48'0 0.0
2017-Sep-24 18:58N 35°37' E 139°48'0 0.0
2017-Sep-24 18:19N 35°37' E 139°48'0 0.0
2017-Sep-24 17:55N 35°37' E 139°48'0 0.0
2017-Sep-24 17:28N 35°37' E 139°48'0 0.0
2017-Sep-24 16:58N 35°37' E 139°48'0 0.0
2017-Sep-24 16:25N 35°37' E 139°48'0 0.0
2017-Sep-24 15:55N 35°37' E 139°48'0 0.0
2017-Sep-24 15:25N 35°37' E 139°48'0 0.0
2017-Sep-24 14:58N 35°37' E 139°48'0 0.0
2017-Sep-24 14:28N 35°37' E 139°48'0 0.0
2017-Sep-24 13:58N 35°37' E 139°48'0 0.0
2017-Sep-24 13:22N 35°37' E 139°48'0 0.0
2017-Sep-24 12:58N 35°37' E 139°48'0 0.0
2017-Sep-24 12:28N 35°37' E 139°48'0 0.0
2017-Sep-24 11:43N 35°37' E 139°48'0 0.0
2017-Sep-24 11:19N 35°37' E 139°48'0 0.0
2017-Sep-24 10:58N 35°37' E 139°48'0 0.0
2017-Sep-24 10:28N 35°37' E 139°48'0 0.0
2017-Sep-24 09:58N 35°37' E 139°48'0 0.0
2017-Sep-24 09:28N 35°37' E 139°48'0 0.0
2017-Sep-24 08:58N 35°37' E 139°48'0 0.0
2017-Sep-24 08:28N 35°37' E 139°48'0 0.0
2017-Sep-24 07:58N 35°37' E 139°48'0 0.0
2017-Sep-24 07:28N 35°37' E 139°48'0 0.4
2017-Sep-24 07:00N 35°37' E 139°48'3 5.0
2017-Sep-24 06:18N 35°35' E 139°52'4 0.7
2017-Sep-24 00:57N 35°37' E 139°48'3 6.3
2017-Sep-24 00:30N 35°36' E 139°51'2 0.5
2017-Sep-23 20:44N 35°36' E 139°54'2 7.1
2017-Sep-23 20:25N 35°36' E 139°51'3 6.4
2017-Sep-23 20:00N 35°37' E 139°48'0 0.0
2017-Sep-22 01:07N 35°37' E 139°48'0 3.0
2017-Sep-22 01:00N 35°37' E 139°48'3 6.1
2017-Sep-22 00:30N 35°36' E 139°52'1 0.1
2017-Sep-21 20:18N 35°35' E 139°52'4 6.1
2017-Sep-21 19:43N 35°37' E 139°48'0 0.1
2017-Sep-21 13:35N 35°37' E 139°48'0 0.0
2017-Sep-21 13:20N 35°37' E 139°48'0 0.0
2017-Sep-21 12:50N 35°37' E 139°48'0 0.0
2017-Sep-21 12:29N 35°37' E 139°48'0 0.0
2017-Sep-21 08:26N 35°37' E 139°48'0 0.4
2017-Sep-21 07:59N 35°37' E 139°48'1 0.4
2017-Sep-21 06:32N 35°37' E 139°48'2 8.1
2017-Sep-21 06:20N 35°36' E 139°47'3 9.1
2017-Sep-21 06:00N 35°39' E 139°46'0 0.5
2017-Sep-21 05:06N 35°39' E 139°46'2 9.5
2017-Sep-21 04:54N 35°37' E 139°46'2 1.8
2017-Sep-21 03:54N 35°37' E 139°48'3 8.3
2017-Sep-21 03:30N 35°35' E 139°51'2 0.3
2017-Sep-20 21:30N 35°37' E 139°50'2 3.0
2017-Sep-20 21:00N 35°37' E 139°48'0 0.0
2017-Sep-20 20:27N 35°37' E 139°48'0 0.0
2017-Sep-20 20:00N 35°37' E 139°48'0 0.0
2017-Sep-20 19:30N 35°37' E 139°48'0 0.0
2017-Sep-20 19:00N 35°37' E 139°48'0 0.0
2017-Sep-20 18:30N 35°37' E 139°48'0 0.0
2017-Sep-20 18:00N 35°37' E 139°48'0 0.0
2017-Sep-20 17:30N 35°37' E 139°48'0 0.0
2017-Sep-20 17:00N 35°37' E 139°48'0 0.0
2017-Sep-20 16:30N 35°37' E 139°48'0 0.0
2017-Sep-20 09:27N 35°37' E 139°48'0 0.0
2017-Sep-20 08:54N 35°37' E 139°48'1 1.4
2017-Sep-20 08:30N 35°37' E 139°48'3 2.4
2017-Sep-20 07:19N 35°35' E 139°51'0 0.5
2017-Sep-20 06:33N 35°35' E 139°51'1 4.8
2017-Sep-20 06:22N 35°35' E 139°52'4 0.7
2017-Sep-20 01:03N 35°37' E 139°48'0 2.3
2017-Sep-20 01:00N 35°37' E 139°48'2 3.9
2017-Sep-20 00:29N 35°36' E 139°50'2 0.4
2017-Sep-19 20:34N 35°35' E 139°52'0 6.7
2017-Sep-19 20:30N 35°35' E 139°51'3 0.3
2017-Sep-19 07:24N 35°37' E 139°48'1 1.1
2017-Sep-19 06:56N 35°37' E 139°48'2 5.3
2017-Sep-19 06:29N 35°36' E 139°51'2 0.4
2017-Sep-19 01:56N 35°36' E 139°53'2 5.3
2017-Sep-19 01:30N 35°36' E 139°50'2 3.9
2017-Sep-19 00:59N 35°37' E 139°48'0 0.0
2017-Sep-19 00:23N 35°37' E 139°48'0 0.0
2017-Sep-18 23:38N 35°37' E 139°48'0 0.0
2017-Sep-18 23:29N 35°37' E 139°48'0 0.4
2017-Sep-18 22:55N 35°37' E 139°48'0 0.3
2017-Sep-18 22:30N 35°37' E 139°48'0 0.3
2017-Sep-18 21:45N 35°37' E 139°48'0 0.0
2017-Sep-17 19:51N 35°37' E 139°48'0 0.0
2017-Sep-17 19:21N 35°37' E 139°48'0 0.0
2017-Sep-17 18:57N 35°37' E 139°48'0 0.0
2017-Sep-17 18:27N 35°37' E 139°48'0 0.0
2017-Sep-17 17:57N 35°37' E 139°48'0 0.0
2017-Sep-17 17:21N 35°37' E 139°48'0 0.0
2017-Sep-17 16:57N 35°37' E 139°48'0 0.0
2017-Sep-17 16:21N 35°37' E 139°48'1 0.1
2017-Sep-17 06:06N 35°37' E 139°49'110.6
2017-Sep-17 05:58N 35°36' E 139°50'2 0.3
2017-Sep-17 00:35N 35°37' E 139°49'0 2.0
2017-Sep-17 00:26N 35°37' E 139°48'0 0.5
2017-Sep-16 23:44N 35°37' E 139°48'0 0.8
2017-Sep-16 23:30N 35°37' E 139°48'0 0.1
2017-Sep-16 21:17N 35°37' E 139°48'0 0.0
2017-Sep-16 20:59N 35°37' E 139°48'0 0.0
2017-Sep-16 20:29N 35°37' E 139°48'0 0.0
2017-Sep-16 19:59N 35°37' E 139°48'0 0.0
2017-Sep-16 19:23N 35°37' E 139°48'0 0.0
2017-Sep-16 18:59N 35°37' E 139°48'0 0.0
2017-Sep-16 18:29N 35°37' E 139°48'0 0.0
2017-Sep-16 17:59N 35°37' E 139°48'0 0.0
2017-Sep-16 17:29N 35°37' E 139°48'0 0.0
2017-Sep-16 16:59N 35°37' E 139°48'0 0.0
2017-Sep-16 16:29N 35°37' E 139°48'0 0.0
2017-Sep-16 15:59N 35°37' E 139°48'0 0.0
2017-Sep-16 15:23N 35°37' E 139°48'0 0.0
2017-Sep-16 14:59N 35°37' E 139°48'0 0.0
2017-Sep-16 14:23N 35°37' E 139°48'0 0.0
2017-Sep-16 13:59N 35°37' E 139°48'0 0.0
2017-Sep-16 13:29N 35°37' E 139°48'0 0.0
2017-Sep-16 12:59N 35°37' E 139°48'0 0.0
2017-Sep-16 12:11N 35°37' E 139°48'0 0.0
2017-Sep-16 11:59N 35°37' E 139°48'0 0.0
2017-Sep-16 11:29N 35°37' E 139°48'0 0.0
2017-Sep-16 10:41N 35°37' E 139°48'0 0.0
2017-Sep-16 10:29N 35°37' E 139°48'0 0.0
2017-Sep-16 09:59N 35°37' E 139°48'0 0.0
2017-Sep-16 09:29N 35°37' E 139°48'0 0.0
2017-Sep-16 08:29N 35°37' E 139°48'0 0.0
2017-Sep-16 07:43N 35°37' E 139°48'0 0.0
2017-Sep-16 07:23N 35°37' E 139°48'0 0.0
2017-Sep-16 06:59N 35°37' E 139°48'0 0.0
2017-Sep-16 06:17N 35°37' E 139°48'0 0.0
2017-Sep-16 05:50N 35°37' E 139°48'0 0.0
2017-Sep-16 05:29N 35°37' E 139°48'2 4.0
2017-Sep-16 04:58N 35°36' E 139°50'2 0.1
2017-Sep-15 07:51N 35°37' E 139°48'0 0.7
2017-Sep-15 07:20N 35°37' E 139°48'0 0.6
2017-Sep-15 06:53N 35°37' E 139°48'3 6.7
2017-Sep-15 06:24N 35°36' E 139°52'  

Dump ship's entire track history